• Join FlightAware (Why Join?)
  • Login
  • US Flag 
12:44AM EDT


 

Airport Tracker/Info


-or-


 

Live Flight TrackerFlight Track Log ✈ N263AM ✈ 26-Jul-2013 ✈ KCOD - KCPR

Flight Track Log - Related Links

Times and Time Zones

All times are in EDT time to prevent confusion due to time zone crossing. See the N263AM flight status page for this flight to view local times or setup timezone preferences in your user account.

Time Position Orientation Groundspeed Altitude Reporting Facility
EDT Latitude Longitude Course Direction KTS MPH feet Rate Location/Type
11:23AM 44.4203 -108.8145 122° Southeast  Level FlightAware Approximate
11:23AM 44.5583 -108.9969 119° Southeast 102 117 5,800  Level Salt Lake Center
11:24AM 44.4047 -108.7803 122° Southeast  Level FlightAware Approximate
11:24AM 44.5811 -108.9878 16° North 86 99 6,100  Level Salt Lake Center
11:25AM 44.3892 -108.7462 123° Southeast  Level FlightAware Approximate
11:25AM 44.6083 -108.9817 North 85 98 6,400  Level Salt Lake Center
11:26AM 44.3745 -108.7113 119° Southeast  Level FlightAware Approximate
11:26AM 44.6308 -108.9786 North 83 96 6,600  Level Salt Lake Center
11:27AM 44.3605 -108.6759 119° Southeast  Level FlightAware Approximate
11:27AM 44.6317 -108.9483 88° East 84 97 6,900  Level Salt Lake Center
11:28AM 44.3464 -108.6405 119° Southeast  Level FlightAware Approximate
11:28AM 44.6136 -108.9264 139° Southeast 87 100 7,200  Level Salt Lake Center
11:29AM 44.6000 -108.8978 124° Southeast 87 100 7,400 240 Climbing Salt Lake Center
11:30AM 44.5822 -108.8789 143° Southeast 85 98 7,700 240 Climbing Salt Lake Center
11:31AM 44.5578 -108.8639 156° South 81 93 8,000 240 Climbing Salt Lake Center
11:32AM 44.5411 -108.8406 135° Southeast 82 94 8,200 180 Climbing Salt Lake Center
11:33AM 44.5258 -108.8136 128° Southeast 84 97 8,400 240 Climbing Salt Lake Center
11:34AM 44.5072 -108.7931 142° Southeast 85 98 8,700 240 Climbing Salt Lake Center
11:35AM 44.4892 -108.7689 136° Southeast 87 100 8,900 180 Climbing Salt Lake Center
11:36AM 44.4697 -108.7356 129° Southeast 90 104 9,100 180 Climbing Salt Lake Center
11:37AM 44.4533 -108.7086 130° Southeast 91 105 9,300 180 Climbing Salt Lake Center
11:38AM 44.4372 -108.6825 131° Southeast 90 104 9,500 180 Climbing Salt Lake Center
11:39AM 44.4175 -108.6622 144° Southeast 90 104 9,700 120 Climbing Salt Lake Center
11:40AM 44.4000 -108.6361 133° Southeast 90 104 9,800 120 Climbing Salt Lake Center
11:42AM 44.3833 -108.6067 128° Southeast 92 106 10,000 180 Climbing Salt Lake Center
11:43AM 44.3661 -108.5717 125° Southeast 93 107 10,200 120 Climbing Salt Lake Center
11:44AM 44.3469 -108.5475 138° Southeast 92 106 10,300 60 Climbing Salt Lake Center
11:45AM 44.3281 -108.5242 139° Southeast 92 106 10,400 120 Climbing Salt Lake Center
11:46AM 44.3094 -108.4989 136° Southeast 92 106 10,600 120 Climbing Salt Lake Center
11:47AM 44.2925 -108.4722 132° Southeast 92 106 10,700 60 Climbing Salt Lake Center
11:48AM 44.2692 -108.4422 137° Southeast 93 107 10,800 120 Climbing Salt Lake Center
11:49AM 44.2528 -108.4139 129° Southeast 94 108 11,000 60 Climbing Salt Lake Center
11:50AM 44.2347 -108.3864 132° Southeast 95 109 11,000  Level Salt Lake Center
11:51AM 44.2172 -108.3547 128° Southeast 98 113 11,000  Level Salt Lake Center
11:52AM 44.2017 -108.3211 123° Southeast 101 116 11,000  Level Salt Lake Center
11:53AM 44.1858 -108.2875 123° Southeast 102 117 11,000  Level Salt Lake Center
11:54AM 44.1656 -108.2492 126° Southeast 103 119 11,000  Level Salt Lake Center
11:55AM 44.1500 -108.2161 123° Southeast 102 117 11,000  Level Salt Lake Center
11:56AM 44.1267 -108.1897 141° Southeast 105 121 11,000  Level Salt Lake Center
11:57AM 44.1039 -108.1656 143° Southeast 105 121 11,000  Level Salt Lake Center
11:58AM 44.0808 -108.1417 143° Southeast 105 121 11,000  Level Salt Lake Center
11:59AM 44.0514 -108.1125 145° Southeast 106 122 11,100  Climbing Salt Lake Center
12:00PM 44.0347 -108.0928 140° Southeast 105 121 11,000 -60 Descending Salt Lake Center
12:01PM 44.0208 -108.0489 114° Southeast 102 117 11,000  Level Salt Lake Center
12:02PM 44.0089 -108.0119 114° Southeast 103 119 11,000  Level Salt Lake Center
12:03PM 43.9919 -107.9789 125° Southeast 105 121 11,000  Level Salt Lake Center
12:04PM 43.9681 -107.9556 145° Southeast 105 121 11,000  Level Salt Lake Center
12:05PM 43.9433 -107.9225 136° Southeast 104 120 11,000  Level Salt Lake Center
12:06PM 43.9261 -107.8928 129° Southeast 102 117 11,000  Level Salt Lake Center
12:07PM 43.9097 -107.8600 125° Southeast 101 116 11,000  Level Salt Lake Center
12:08PM 43.8956 -107.8222 117° Southeast 101 116 11,000  Level Salt Lake Center
12:09PM 43.8778 -107.7936 131° Southeast 103 119 11,100  Climbing Salt Lake Center
12:10PM 43.8564 -107.7694 141° Southeast 103 119 11,000 -60 Descending Salt Lake Center
12:11PM 43.8353 -107.7317 128° Southeast 102 117 11,000  Level Salt Lake Center
12:13PM 43.8178 -107.6969 125° Southeast 105 121 11,000  Level Salt Lake Center
12:14PM 43.8025 -107.6639 123° Southeast 104 120 11,000  Level Salt Lake Center
12:15PM 43.7875 -107.6281 120° Southeast 105 121 11,000  Level Salt Lake Center
12:16PM 43.7744 -107.5928 117° Southeast 104 120 11,000  Level Salt Lake Center
12:17PM 43.7581 -107.5500 118° Southeast 105 121 11,000  Level Salt Lake Center
12:18PM 43.7381 -107.5189 132° Southeast 107 123 11,000  Level Salt Lake Center
12:19PM 43.7156 -107.4936 141° Southeast 107 123 11,000  Level Salt Lake Center
12:20PM 43.6931 -107.4706 143° Southeast 105 121 11,100  Climbing Salt Lake Center
12:21PM 43.6694 -107.4444 141° Southeast 106 122 11,000 -60 Descending Salt Lake Center
12:22PM 43.6503 -107.4178 135° Southeast 103 119 11,000  Level Salt Lake Center
12:23PM 43.6317 -107.3772 122° Southeast 101 116 11,000 -60 Level Salt Lake Center
12:24PM 43.6222 -107.3375 108° East 102 117 10,900 -60 Descending Salt Lake Center
12:25PM 43.6119 -107.2997 111° Southeast 104 120 10,900  Level Salt Lake Center
12:26PM 43.6019 -107.2608 110° East 105 121 10,900  Level Salt Lake Center
12:27PM 43.5903 -107.2197 111° Southeast 107 123 10,900  Level Salt Lake Center
12:28PM 43.5708 -107.1831 126° Southeast 107 123 10,900  Level Salt Lake Center
12:29PM 43.5544 -107.1525 126° Southeast 105 121 10,900  Level Salt Lake Center
12:30PM 43.5356 -107.1231 132° Southeast 103 119 10,900  Level Salt Lake Center
12:31PM 43.5217 -107.0897 120° Southeast 102 117 10,900  Level Salt Lake Center
12:32PM 43.5136 -107.0508 106° East 100 115 11,000 60 Climbing Denver Center
12:33PM 43.4983 -107.0178 122° Southeast 103 119 11,100  Climbing Denver Center
12:34PM 43.4714 -106.9844 138° Southeast 109 125 11,000 -60 Descending Denver Center
12:35PM 43.4478 -106.9669 152° Southeast 100 115 11,000  Level Denver Center
12:36PM 43.4211 -106.9586 167° South 98 113 11,100  Climbing Denver Center
12:37PM 43.4000 -106.9347 141° Southeast 99 114 11,100 -60 Level Denver Center
12:38PM 43.3867 -106.8967 116° Southeast 108 124 11,000 -60 Descending Denver Center
12:39PM 43.3767 -106.8519 107° East 105 121 11,000  Level Denver Center
12:40PM 43.3672 -106.8136 109° East 104 120 11,000  Level Denver Center
12:41PM 43.3497 -106.7764 123° Southeast 108 124 11,000  Level Denver Center
12:43PM 43.3397 -106.7389 110° East 109 125 11,000  Level Denver Center
12:44PM 43.3075 -106.7336 173° South 101 116 11,000  Level Denver Center
12:45PM 43.2819 -106.7367 185° South 98 113 11,100  Climbing Denver Center
12:46PM 43.2533 -106.7369 180° South 105 121 11,100  Level Denver Center
12:47PM 43.2225 -106.7289 169° South 102 117 11,100  Level Denver Center
12:48PM 43.1925 -106.7289 180° South 108 124 11,100 -60 Level Denver Center
12:49PM 43.1600 -106.7206 169° South 107 123 11,000 -60 Descending Denver Center
12:50PM 43.1331 -106.7153 172° South 103 119 11,000 -480 Level Denver Center
12:51PM 43.1036 -106.7075 169° South 99 114 10,100 -780 Descending Denver Center
12:52PM 43.0808 -106.6994 166° South 93 107 9,500 -780 Descending Denver Center
12:53PM 43.0531 -106.6867 161° South 92 106 8,600 -720 Descending Denver Center
12:54PM 43.0278 -106.6811 171° South 93 107 8,100 -300 Descending Denver Center
12:55PM 42.9983 -106.6747 171° South 94 108 8,100  Level Denver Center
12:56PM 42.9725 -106.6717 175° South 95 109 8,100 -60 Level Denver Center
12:57PM 42.9442 -106.6747 185° South 94 108 8,000  Descending Denver Center
12:58PM 42.9197 -106.6703 172° South 93 107 8,100  Climbing Denver Center
12:59PM 42.8986 -106.6594 159° South 101 116 8,000 -120 Descending Denver Center
01:01PM 42.9179 -106.6187 57° Northeast  Level FlightAware Approximate
01:08PM 42.9080 -106.4644 57° Northeast  Level Estimated
01:09PM 42.9080 -106.4644 39° Northeast  Level Estimated
01:10PM 42.9080 -106.4644 39° Northeast  Level Estimated
01:11PM 42.9080 -106.4644 39° Northeast  Level Estimated
01:12PM 42.9080 -106.4644 39° Northeast  Level Estimated
01:13PM 42.9080 -106.4644 216° Southwest  Level Estimated